BME weather

Broome International Airport
Broome, Western Australia, Australia

Public forecast

Using degrees Celsius for public forecast. Weather courtesy of forecast.io.

METAR (pilot weather report)

Retrieved 2017/05/28 06:30 UTC (38 seconds ago):

YBRM 280630Z AUTO 14005KT 9999 // NCD 32/12 Q1011

TAF (pilot weather forecast)

Retrieved 2017/05/28 06:36 UTC (0 seconds ago):

TAF YBRM 280515Z 2806/2906 24005KT CAVOK FM281800 13006KT CAVOK